Terminal Aerodrome Forecast
Issued by NWS Shreveport, LA

Home | Current Version | Previous Version | Text Only | Print | Product List | Glossary On
Versions: 1 2 3 4 5 6 7 8 9 10 11 12 13
000
FTUS44 KSHV 192321
TAFTXK
TAF
KTXK 192321Z 2000/2024 17005KT P6SM FEW045 SCT250
      TEMPO 2010/2014 5SM BR SCT008
     FM201400 20008KT P6SM SCT015
      TEMPO 2014/2017 BKN015
     FM201700 20007KT P6SM SCT030
     FM202000 19007KT P6SM SCT045=

USA.gov is the U.S. government's official web portal to all federal, state and local government web resources and services.